Skip Navigation Links
NOAA logo - Click to go to the NOAA homepage
NOAA's National Weather Service
Alaska Aviation Weather Unit
  NWS logo - Click to go to the NWS homepage
Left Navbar Graphic     21 AKDT = 05 GMT

   
NOAA is celebrating 200 years of science, service, and stewardship. Visit the NOAA 200th celebration Web site to learn more.
USA.gov is the U.S. Government's official Web portal to all Federal, state and local government Web resources and services.
Facebook
NWS on Facebook

AAWU Home :: Display TAF Add Bookmark
TAF PAKW 270217Z 2702/2724 21009KT 5SM -RA BR BKN015 OVC025
      TEMPO 2702/2704 1SM RA BR OVC015
     FM270600 22008KT P6SM VCSH OVC035
     FM271700 19012G20KT P6SM -RA OVC025
      AMD LTD TO CLD VIS AND WIND=
METAR PAKW 262353Z AUTO 00000KT 10SM BKN032 OVC043 11/06 A2950 RMK AO2
     RAE05 SLP988 P0000 60001 T01060056 10133 20106 51012 TSNO=

METAR PAKW 270053Z AUTO 25004KT 9SM -RA OVC034 09/06 A2951 RMK AO2
 RAB19 SLP995 P0000 T00940061 TSNO=

SPECI PAKW 270138Z AUTO VRB04KT 2 1/2SM -RA BR FEW022 BKN034 OVC041
     08/07 A2954 RMK AO2 P0005 T00830067 TSNO=

SPECI PAKW 270150Z AUTO 21005KT 4SM -RA BR FEW020 OVC036 08/07 A2954 RMK
     AO2 P0007 TSNO=

METAR PAKW 270153Z AUTO 22004KT 4SM -RA BR FEW020 OVC039 08/07 A2954 RMK
     AO2 SLP004 P0007 T00830067 TSNO=

SPECI PAKW 270208Z AUTO VRB05KT 4SM -RA BR FEW008 BKN023 OVC036 08/07
     A2955 RMK AO2 P0001 T00830067 TSNO=

SPECI PAKW 270214Z AUTO 22005KT 1 3/4SM -RA BR SCT008 BKN015 OVC038
     08/07 A2955 RMK AO2 P0002 T00780067 TSNO=

SPECI PAKW 270224Z AUTO 22005KT 2SM -RA BR BKN008 BKN015 OVC024 08/07
     A2956 RMK AO2 P0003 T00780067 TSNO=

METAR PAKW 270253Z AUTO 23007G15KT 190V270 6SM -RA BR FEW007 BKN012
     OVC020 07/06 A2958 RMK AO2 SLP018 P0006 60013 T00720056 53023
     TSNO=

SPECI PAKW 270300Z AUTO 22010G17KT 5SM -RA BR SCT012 OVC022 07/06 A2959
     RMK AO2 P0001 T00670056 TSNO=

SPECI PAKW 270314Z AUTO 22009G15KT 2 1/2SM RA BR BKN012 OVC022 07/06
     A2960 RMK AO2 P0004 T00670056 TSNO=

SPECI PAKW 270328Z AUTO 21009KT 4SM -RA BR BKN014 BKN019 OVC025 07/05
     A2961 RMK AO2 P0006 T00670050 TSNO=

SPECI PAKW 270349Z AUTO 20008KT 4SM -RA BR SCT014 BKN021 OVC028 07/05
     A2963 RMK AO2 P0008 TSNO=

METAR PAKW 270353Z AUTO 20007KT 6SM -RA BR SCT014 BKN021 OVC028 07/05
     A2963 RMK AO2 SLP033 P0009 T00670050 TSNO=

METAR PAKW 270453Z AUTO 22009KT 6SM -RA BR SCT012 BKN018 OVC024
 06/05 A2967 RMK AO2 SLP047 P0004 T00610050 TSNO=


NOAA's National Weather Service
Alaska Aviation Weather Unit
6930 Sand Lake Road
Anchorage, AK 99502-1845
Disclaimer
Credits
Glossary
Privacy Policy
About Us
Career Opportunities
Contact AAWU Internet Services Site last modified: April, 17th 2012